< < Back
Terminal Aerodrome Forecast


Current Version              Previous Versions:   1  2  3  4  5  6  7  8  9  

Terminal Aerodrome Forecast

211
FTUS42 KTAE 061700
TAFDHN
TAF
KDHN 061720Z 0618/0718 01009KT P6SM OVC020
     FM061900 VRB06KT P6SM SCT250=

Latest METAR

180
SAUS70 KWBC 070000 RRQ
MTRDHN
METAR KDHN 062353Z 05004KT 10SM CLR 08/03 A3041 RMK AO2 SLP298 T00830028
10111 20072 53002


USA.gov is the U.S. government's official web portal to all federal, state and local government web resources and services.